RJSM(METAR)
05/22 00:00
METAR RJSM 211500Z 10008KT 9999 FEW050 SCT080 BKN120 15/13 Q1009 RMK
2SC050 4AC080 6AC120 A2982=
戻る
トップページへ戻る
IMOC Co,.Ltd.